Time;durP1;ratioP1;P1;durP2;ratioP2;P2;SDS_P1;SDS_P2;PMS_P1;PMS_P2;Temp;Humidity;BMP_temperature;BMP_pressure;BME280_temperature;BME280_humidity;BME280_pressure;Samples;Min_cycle;Max_cycle;Signal;HPM_P1;HPM_P2
2022/02/05 00:01:22;;;;;;;7.60;3.60;;;;;;;3.14;89.23;100370.66;5070959;28;20228;-77
2022/02/05 00:03:55;;;;;;;5.67;3.20;;;;;;;3.07;89.00;100374.03;5071288;28;20587;-76
2022/02/05 00:06:28;;;;;;;5.40;4.17;;;;;;;3.11;88.87;100374.09;5071480;28;20205;-77
2022/02/05 00:09:03;;;;;;;8.47;3.93;;;;;;;3.13;88.73;100379.25;5080837;28;20225;-77
2022/02/05 00:14:35;;;;;;;6.13;3.50;;;;;;;3.12;88.75;100385.25;5042183;28;20198;-77
2022/02/05 00:20:25;;;;;;;8.10;3.67;;;;;;;3.14;88.79;100391.31;5052419;28;20219;-78
2022/02/05 00:39:52;;;;;;;9.43;5.43;;;;;;;3.10;89.39;100394.69;5032159;28;20205;-76
2022/02/05 00:42:29;;;;;;;9.57;5.70;;;;;;;3.15;89.66;100381.00;5032163;28;20505;-77
2022/02/05 00:44:56;;;;;;;10.70;6.37;;;;;;;3.16;90.01;100387.03;5032462;28;20217;-77
2022/02/05 00:47:22;;;;;;;7.33;6.07;;;;;;;3.17;89.83;100381.00;5031909;28;20583;-77
2022/02/05 00:49:54;;;;;;;7.63;6.23;;;;;;;3.14;90.90;100368.09;5032051;28;20234;-77
2022/02/05 00:52:21;;;;;;;8.13;5.70;;;;;;;3.04;90.90;100363.69;5032080;28;20230;-77
2022/02/05 00:54:51;;;;;;;5.57;5.07;;;;;;;2.98;90.88;100357.63;5032310;28;20457;-76
2022/02/05 00:57:31;;;;;;;7.17;5.60;;;;;;;2.95;91.39;100352.44;5032320;28;20214;-76
2022/02/05 00:59:57;;;;;;;6.13;5.53;;;;;;;3.01;91.51;100351.63;5032086;28;20263;-77
2022/02/05 01:02:24;;;;;;;7.63;6.03;;;;;;;3.04;91.68;100353.38;5042610;28;20225;-77
2022/02/05 01:04:50;;;;;;;7.80;6.40;;;;;;;2.90;91.92;100340.34;5052042;28;20248;-77
2022/02/05 01:07:16;;;;;;;8.37;7.57;;;;;;;2.87;92.08;100338.56;5052305;28;20208;-77
2022/02/05 01:09:45;;;;;;;8.77;7.00;;;;;;;2.78;92.90;100326.47;5051625;28;20205;-77
2022/02/05 01:12:13;;;;;;;7.87;6.63;;;;;;;2.78;nan;100331.63;5052181;28;20223;-76
2022/02/05 01:14:46;;;;;;;9.80;7.80;;;;;;;2.75;93.14;100304.94;5052126;28;20213;-77
2022/02/05 01:17:14;;;;;;;8.77;7.97;;;;;;;2.79;93.30;100293.81;5051617;28;20185;-77
2022/02/05 01:20:11;;;;;;;9.47;7.90;;;;;;;2.80;93.12;100299.84;5051695;28;20212;-77
2022/02/05 01:22:41;;;;;;;8.93;7.87;;;;;;;2.78;93.59;100308.44;5051447;28;20291;-76
2022/02/05 01:25:08;;;;;;;10.30;7.80;;;;;;;2.76;93.57;100301.53;5051166;28;20215;-76
2022/02/05 01:27:42;;;;;;;11.67;8.43;;;;;;;2.64;93.81;100301.41;5051504;28;20213;-76
2022/02/05 01:30:19;;;;;;;11.07;8.70;;;;;;;2.69;94.42;100292.84;5051227;28;20598;-77
2022/02/05 01:32:54;;;;;;;9.03;8.17;;;;;;;2.73;94.05;100304.91;5051115;28;20609;-76
2022/02/05 01:35:29;;;;;;;8.90;8.10;;;;;;;2.80;93.98;100321.34;5051323;28;20251;-77
2022/02/05 01:49:12;;;;;;;8.80;8.00;;;;;;;2.82;92.76;100362.59;5055011;28;20219;-77
2022/02/05 01:51:59;;;;;;;8.43;7.63;;;;;;;2.77;92.89;100354.78;5055194;28;20283;-77
2022/02/05 01:54:36;;;;;;;9.40;8.60;;;;;;;2.81;93.43;100355.69;5055427;28;20240;-77
2022/02/05 01:57:08;;;;;;;8.53;7.67;;;;;;;2.81;93.31;100353.97;5055592;28;20205;-77
2022/02/05 01:59:53;;;;;;;8.17;7.50;;;;;;;2.77;92.90;100367.69;5055058;28;20596;-77
2022/02/05 02:05:06;;;;;;;10.47;7.80;;;;;;;2.92;92.39;100379.91;5054671;28;20209;-77
2022/02/05 02:10:53;;;;;;;7.70;6.90;;;;;;;3.09;91.28;100416.16;5054593;28;20209;-77
2022/02/05 02:16:18;;;;;;;8.30;6.53;;;;;;;3.12;90.12;100454.91;5041309;28;20339;-77
2022/02/05 02:18:57;;;;;;;17.17;7.47;;;;;;;3.16;89.97;100461.81;5054636;28;20208;-76
2022/02/05 02:21:33;;;;;;;6.30;5.70;;;;;;;3.21;88.73;100485.97;5054396;28;20225;-77
2022/02/05 02:24:07;;;;;;;9.27;7.10;;;;;;;3.23;88.46;100489.44;5054435;28;20213;-77
2022/02/05 02:26:48;;;;;;;5.97;5.27;;;;;;;3.29;88.81;100509.25;5054687;28;20212;-77
2022/02/05 02:29:19;;;;;;;9.00;5.10;;;;;;;3.35;88.11;100533.41;5054299;28;20300;-77
2022/02/05 02:31:49;;;;;;;7.30;5.23;;;;;;;3.40;87.74;100530.88;5054207;28;20396;-77
2022/02/05 02:34:21;;;;;;;7.20;5.80;;;;;;;3.35;87.92;100537.69;5054620;28;20296;-77
2022/02/05 02:36:53;;;;;;;10.50;5.83;;;;;;;3.40;88.12;100538.63;5054258;28;20202;-77
2022/02/05 02:39:24;;;;;;;8.20;6.23;;;;;;;3.38;87.20;100538.59;5054273;28;20206;-77
2022/02/05 02:41:55;;;;;;;11.73;5.90;;;;;;;3.35;88.13;100536.00;5054193;28;20233;-77
2022/02/05 02:44:22;;;;;;;8.23;4.90;;;;;;;3.29;88.44;100530.78;5054488;28;20206;-77
2022/02/05 02:46:48;;;;;;;5.83;5.17;;;;;;;3.35;88.12;100525.69;5053875;28;20205;-77
2022/02/05 02:49:21;;;;;;;10.50;5.40;;;;;;;3.40;87.25;100550.66;5054139;28;20676;-77
2022/02/05 02:57:18;;;;;;;11.50;5.83;;;;;;;3.29;87.88;100559.16;5054090;28;20718;-76
2022/02/05 02:59:51;;;;;;;7.60;5.90;;;;;;;3.29;87.79;100553.09;5052944;28;20206;-77
2022/02/05 03:02:20;;;;;;;6.53;5.47;;;;;;;3.29;88.17;100554.00;5053865;28;20273;-77
2022/02/05 03:04:47;;;;;;;5.97;5.20;;;;;;;3.31;88.33;100541.09;5053744;28;20233;-76
2022/02/05 03:07:15;;;;;;;6.83;5.10;;;;;;;3.30;88.52;100547.97;5054050;28;20205;-77
2022/02/05 03:09:42;;;;;;;5.90;4.93;;;;;;;3.23;88.65;100543.59;5053772;28;20555;-77
2022/02/05 03:12:10;;;;;;;8.40;4.93;;;;;;;3.21;88.64;100532.41;5053786;28;20307;-77
2022/02/05 03:14:37;;;;;;;8.33;5.07;;;;;;;3.29;88.60;100548.81;5053889;28;20209;-77
2022/02/05 03:17:14;;;;;;;9.20;5.23;;;;;;;3.29;88.17;100543.66;5053402;28;20259;-77
2022/02/05 03:19:41;;;;;;;8.27;5.30;;;;;;;3.33;87.48;100565.19;5053038;28;20205;-77
2022/02/05 03:22:08;;;;;;;9.07;5.07;;;;;;;3.39;88.11;100573.03;5053753;28;20274;-77
2022/02/05 03:24:35;;;;;;;6.53;5.00;;;;;;;3.42;87.74;100595.41;5053151;28;20214;-77
2022/02/05 03:27:02;;;;;;;13.57;5.33;;;;;;;3.37;88.34;100574.72;5053450;28;20205;-77
2022/02/05 03:29:28;;;;;;;9.73;5.00;;;;;;;3.35;87.64;100590.19;5053197;28;20231;-76
2022/02/05 03:31:55;;;;;;;5.27;4.60;;;;;;;3.43;87.53;100582.53;5053001;28;20233;-77
2022/02/05 03:34:21;;;;;;;5.93;4.90;;;;;;;3.45;85.78;100640.19;5053192;28;20605;-77
2022/02/05 03:36:47;;;;;;;5.87;4.67;;;;;;;3.44;85.72;100638.44;5053442;28;20255;-76
2022/02/05 03:39:14;;;;;;;7.17;4.37;;;;;;;3.46;84.82;100665.13;5053330;28;20235;-77
2022/02/05 03:41:41;;;;;;;7.10;4.53;;;;;;;3.41;85.61;100655.59;5052642;28;20230;-77
2022/02/05 03:44:08;;;;;;;9.10;5.10;;;;;;;3.38;85.17;100669.31;5053430;28;20207;-77
2022/02/05 03:46:34;;;;;;;7.37;4.53;;;;;;;3.38;84.70;100687.38;5052889;28;20206;-77
2022/02/05 03:49:01;;;;;;;8.90;3.97;;;;;;;3.29;84.14;100697.56;5053487;28;20213;-77
2022/02/05 03:51:27;;;;;;;10.40;4.33;;;;;;;3.30;84.57;100701.91;5052918;28;20221;-77
2022/02/05 03:53:54;;;;;;;9.67;4.47;;;;;;;3.23;84.31;100708.69;5053310;28;20271;-77
2022/02/05 03:56:20;;;;;;;6.67;3.97;;;;;;;3.28;83.33;100717.34;5052560;28;20210;-77
2022/02/05 03:58:48;;;;;;;5.43;3.40;;;;;;;3.27;83.19;100744.00;5053229;28;20210;-77
2022/02/05 04:01:15;;;;;;;7.17;3.90;;;;;;;3.30;83.62;100743.16;5052542;28;20271;-76
2022/02/05 04:03:41;;;;;;;5.07;3.63;;;;;;;3.31;83.21;100750.94;5052582;28;20221;-77
2022/02/05 04:06:08;;;;;;;4.53;3.37;;;;;;;3.32;82.84;100757.81;5052378;28;20555;-76
2022/02/05 04:08:34;;;;;;;6.60;3.27;;;;;;;3.38;82.07;100778.56;5052876;28;20320;-77
2022/02/05 04:11:06;;;;;;;10.70;3.47;;;;;;;3.40;82.16;100780.31;5052078;28;20209;-77
2022/02/05 04:16:23;;;;;;;5.33;3.50;;;;;;;3.46;82.94;100776.09;5052522;28;20220;-76
2022/02/05 04:18:52;;;;;;;8.23;4.37;;;;;;;3.42;82.81;100787.22;5052344;28;20205;-77
2022/02/05 04:21:18;;;;;;;5.17;3.50;;;;;;;3.47;82.79;100788.16;5051885;28;20236;-76
2022/02/05 04:23:46;;;;;;;4.50;3.40;;;;;;;3.35;83.46;100773.38;5052190;28;20251;-77
2022/02/05 04:26:13;;;;;;;5.77;3.27;;;;;;;3.31;83.06;100781.00;5052691;28;20251;-77
2022/02/05 04:28:40;;;;;;;4.77;3.57;;;;;;;3.38;83.10;100785.44;5052545;28;20209;-77
2022/02/05 04:31:06;;;;;;;4.57;3.63;;;;;;;3.36;82.57;100785.41;5051861;28;20233;-77
2022/02/05 04:33:34;;;;;;;7.27;3.20;;;;;;;3.41;82.58;100785.50;5051743;28;20208;-77
2022/02/05 04:36:01;;;;;;;5.33;3.13;;;;;;;3.41;82.71;100788.09;5052419;28;20206;-77
2022/02/05 04:38:28;;;;;;;7.53;3.33;;;;;;;3.35;82.83;100785.38;5052363;28;20296;-77
2022/02/05 04:40:59;;;;;;;7.87;3.60;;;;;;;3.38;82.42;100796.63;5051858;28;20288;-77
2022/02/05 04:43:49;;;;;;;6.37;3.43;;;;;;;3.32;83.14;100782.75;5051950;28;20707;-76
2022/02/05 04:49:22;;;;;;;9.90;4.00;;;;;;;3.28;82.85;100789.56;5051259;28;20204;-76
2022/02/05 04:57:36;;;;;;;7.80;3.27;;;;;;;3.34;82.93;100791.41;5037741;28;20205;-76
2022/02/05 05:00:23;;;;;;;7.87;3.40;;;;;;;3.32;83.62;100772.44;5051707;28;20209;-77
2022/02/05 05:03:04;;;;;;;6.63;3.77;;;;;;;3.40;82.90;100796.66;5051098;28;20572;-77
2022/02/05 05:06:01;;;;;;;5.90;3.83;;;;;;;3.45;83.31;100784.69;5044571;28;20297;-77
2022/02/05 05:08:40;;;;;;;5.47;3.73;;;;;;;3.44;83.27;100775.22;5051436;28;20236;-77
2022/02/05 05:11:41;;;;;;;9.33;3.93;;;;;;;3.40;82.94;100796.66;5051763;28;20578;-77
2022/02/05 05:19:46;;;;;;;6.40;3.50;;;;;;;3.26;82.55;100811.91;5051510;28;20199;-77
2022/02/05 05:22:15;;;;;;;5.07;3.57;;;;;;;3.24;82.61;100794.66;5052307;28;20237;-77
2022/02/05 05:24:42;;;;;;;7.00;4.50;;;;;;;3.28;83.12;100805.06;5052110;28;20216;-77
2022/02/05 05:27:09;;;;;;;5.63;4.27;;;;;;;3.19;83.56;100804.88;5052422;28;20591;-77
2022/02/05 05:29:35;;;;;;;10.83;4.43;;;;;;;3.17;83.29;100817.78;5052540;28;20201;-77
2022/02/05 05:32:01;;;;;;;7.23;4.77;;;;;;;3.09;83.33;100827.09;5053234;28;20240;-77
2022/02/05 05:34:28;;;;;;;6.00;4.50;;;;;;;3.05;83.81;100825.28;5053181;28;20255;-77
2022/02/05 05:36:56;;;;;;;6.07;4.20;;;;;;;3.05;84.25;100806.38;5052303;28;20757;-77
2022/02/05 05:39:23;;;;;;;5.60;4.17;;;;;;;3.06;83.54;100819.31;5052793;28;20209;-77
2022/02/05 05:41:50;;;;;;;5.63;4.70;;;;;;;3.06;83.40;100823.59;5052950;28;20228;-77
2022/02/05 05:47:14;;;;;;;5.20;4.63;;;;;;;3.03;83.88;100831.25;5051931;28;20205;-77
2022/02/05 05:49:57;;;;;;;6.93;4.40;;;;;;;3.06;83.75;100827.03;5052345;28;20232;-77
2022/02/05 05:52:24;;;;;;;5.10;4.10;;;;;;;3.10;83.45;100825.38;5052459;28;20225;-77
2022/02/05 05:54:52;;;;;;;7.03;4.47;;;;;;;3.11;83.40;100840.91;5052416;28;20654;-77
2022/02/05 05:57:18;;;;;;;5.27;4.53;;;;;;;3.15;83.40;100840.09;5052197;28;20206;-77
2022/02/05 05:59:45;;;;;;;7.80;4.43;;;;;;;3.20;83.02;100859.94;5051707;28;20628;-77
2022/02/05 06:02:11;;;;;;;6.07;3.97;;;;;;;3.19;82.04;100884.84;5051815;28;20267;-77
2022/02/05 06:04:38;;;;;;;9.03;6.17;;;;;;;3.23;82.89;100891.84;5051526;28;20299;-77
2022/02/05 06:07:05;;;;;;;8.87;4.57;;;;;;;3.23;82.93;100888.38;5051552;28;20205;-77
2022/02/05 06:09:32;;;;;;;9.63;4.30;;;;;;;3.15;82.73;100878.78;5051398;28;20209;-76
2022/02/05 06:12:00;;;;;;;7.83;4.43;;;;;;;3.19;83.27;100882.28;5051746;28;20232;-77
2022/02/05 06:14:28;;;;;;;6.27;4.17;;;;;;;3.25;83.17;100890.16;5051532;28;20231;-77
2022/02/05 06:17:00;;;;;;;7.13;4.80;;;;;;;3.23;83.03;100896.09;5051381;28;20621;-77
2022/02/05 06:19:26;;;;;;;6.00;4.13;;;;;;;3.17;83.68;100902.00;5051806;28;20209;-77
2022/02/05 06:21:53;;;;;;;8.37;4.67;;;;;;;3.13;83.98;100900.22;5051574;28;20575;-77
2022/02/05 06:24:19;;;;;;;7.87;4.97;;;;;;;3.15;83.69;100889.13;5051613;28;20289;-77
2022/02/05 06:26:45;;;;;;;6.17;4.50;;;;;;;3.13;84.21;100893.38;5051797;28;20260;-77
2022/02/05 06:29:13;;;;;;;8.83;4.70;;;;;;;3.19;84.42;100892.59;5051782;28;20231;-77
2022/02/05 06:34:08;;;;;;;6.53;4.17;;;;;;;3.16;84.18;100897.72;5023398;28;20221;-78
2022/02/05 06:36:34;;;;;;;6.87;3.93;;;;;;;3.19;83.45;100923.53;5035001;28;20217;-80
2022/02/05 06:39:01;;;;;;;11.63;3.90;;;;;;;3.21;83.02;100929.63;5035268;28;20627;-80
2022/02/05 06:41:27;;;;;;;7.20;4.20;;;;;;;3.23;83.28;100939.97;5034880;28;20693;-79
2022/02/05 06:43:54;;;;;;;7.33;4.10;;;;;;;3.24;83.36;100942.56;5034292;28;20230;-78
2022/02/05 06:46:21;;;;;;;8.40;4.60;;;;;;;3.28;83.06;100967.59;5034381;28;20249;-78
2022/02/05 06:48:48;;;;;;;8.23;4.20;;;;;;;3.32;83.41;100960.78;5034269;28;20210;-78
2022/02/05 06:51:14;;;;;;;9.17;3.80;;;;;;;3.24;82.91;100973.53;5033978;28;20248;-78
2022/02/05 06:53:40;;;;;;;4.30;3.47;;;;;;;3.15;83.15;100981.97;5034329;28;20222;-77
2022/02/05 06:56:07;;;;;;;7.53;3.93;;;;;;;3.18;82.18;100991.47;5034189;28;20622;-79
2022/02/05 06:58:33;;;;;;;6.60;3.63;;;;;;;3.17;81.84;101002.63;5034313;28;20214;-78
2022/02/05 07:01:00;;;;;;;8.80;3.83;;;;;;;3.06;83.19;100999.81;5036507;28;20206;-79
2022/02/05 07:03:27;;;;;;;6.47;3.90;;;;;;;3.05;82.71;100992.06;5037533;28;20670;-78
2022/02/05 07:05:54;;;;;;;6.27;4.07;;;;;;;2.93;83.68;100972.03;5038084;28;20233;-78
2022/02/05 07:08:21;;;;;;;7.63;3.70;;;;;;;3.03;83.08;100970.53;5037638;28;20213;-77
2022/02/05 07:10:47;;;;;;;7.50;4.43;;;;;;;3.04;83.49;100986.03;5035071;28;20681;-77
2022/02/05 07:13:16;;;;;;;4.70;3.63;;;;;;;3.05;83.62;100977.44;5033726;28;20225;-77
2022/02/05 07:15:49;;;;;;;6.00;4.40;;;;;;;3.09;83.32;100987.00;5033605;28;20214;-77
2022/02/05 07:18:24;;;;;;;6.20;3.53;;;;;;;3.04;83.31;100993.78;5033595;28;20209;-76
2022/02/05 07:20:55;;;;;;;6.93;3.50;;;;;;;2.99;83.46;100997.94;5033364;28;20679;-78
2022/02/05 07:23:47;;;;;;;5.60;3.50;;;;;;;2.93;83.51;100995.25;5032762;28;20234;-78
2022/02/05 07:29:13;;;;;;;8.53;3.40;;;;;;;3.02;83.46;101003.19;5033508;28;20240;-77
2022/02/05 07:31:42;;;;;;;6.03;3.80;;;;;;;3.08;84.37;101020.50;5033234;28;20260;-78
2022/02/05 07:34:09;;;;;;;8.17;3.87;;;;;;;3.00;85.77;100963.59;5032945;28;20576;-78
2022/02/05 07:36:36;;;;;;;7.40;4.30;;;;;;;2.99;87.19;100933.47;5032658;28;20252;-76
2022/02/05 07:39:05;;;;;;;6.97;3.10;;;;;;;3.00;86.32;100937.81;5032569;28;20195;-78
2022/02/05 07:41:31;;;;;;;9.03;3.40;;;;;;;2.93;86.97;100941.09;5032961;28;20209;-77
2022/02/05 07:43:58;;;;;;;5.40;3.20;;;;;;;2.94;86.17;100941.13;5032396;28;20222;-78
2022/02/05 07:46:24;;;;;;;6.40;3.17;;;;;;;3.02;86.07;100961.06;5032406;28;20249;-76
2022/02/05 07:48:51;;;;;;;6.17;3.73;;;;;;;3.07;86.13;100967.16;5032322;28;20268;-77
2022/02/05 07:51:17;;;;;;;8.13;4.67;;;;;;;3.06;86.41;100952.53;5032271;28;20206;-78
2022/02/05 07:53:45;;;;;;;6.40;3.87;;;;;;;3.10;85.45;100972.41;5032305;28;20218;-78
2022/02/05 07:56:12;;;;;;;5.67;3.23;;;;;;;3.21;85.44;100988.97;5032422;28;20201;-79
2022/02/05 07:58:38;;;;;;;11.83;4.40;;;;;;;3.19;86.29;100985.47;5032467;28;20256;-78
2022/02/05 08:01:05;;;;;;;12.00;3.87;;;;;;;3.20;85.92;100978.63;5032146;28;20248;-78
2022/02/05 08:03:31;;;;;;;6.63;3.73;;;;;;;3.20;85.47;100997.53;5031418;28;20222;-78
2022/02/05 08:05:59;;;;;;;8.40;3.93;;;;;;;3.22;85.51;100997.56;5032389;28;20253;-77
2022/02/05 08:08:28;;;;;;;6.00;3.77;;;;;;;3.31;85.68;100997.72;5031653;28;20206;-78
2022/02/05 08:11:02;;;;;;;6.20;3.30;;;;;;;3.34;85.45;101011.56;5029956;28;20202;-77
2022/02/05 08:13:31;;;;;;;9.90;4.13;;;;;;;3.41;84.99;101012.59;5031901;28;20629;-77
2022/02/05 08:16:09;;;;;;;9.80;4.30;;;;;;;3.41;84.93;101020.31;5032311;28;20248;-77
2022/02/05 08:18:37;;;;;;;10.17;4.37;;;;;;;3.42;85.33;101023.75;5029718;28;20202;-77
2022/02/05 08:21:03;;;;;;;10.80;5.60;;;;;;;3.41;85.58;101022.91;5031681;28;20209;-79
2022/02/05 08:23:31;;;;;;;11.10;5.70;;;;;;;3.43;85.10;101020.31;5031370;28;20696;-78
2022/02/05 08:25:59;;;;;;;9.40;4.40;;;;;;;3.46;84.56;101031.59;5031993;28;20198;-76
2022/02/05 08:28:27;;;;;;;6.77;3.77;;;;;;;3.45;83.83;101063.41;5031941;28;20559;-76
2022/02/05 08:30:54;;;;;;;6.27;4.20;;;;;;;3.49;84.07;101072.06;5031169;28;20206;-78
2022/02/05 08:33:20;;;;;;;8.97;3.63;;;;;;;3.57;84.79;101052.47;5030638;28;20237;-78
2022/02/05 08:35:49;;;;;;;7.20;3.67;;;;;;;3.57;84.43;101058.50;5030936;28;20206;-79
2022/02/05 08:38:15;;;;;;;6.63;3.40;;;;;;;3.50;83.61;101073.81;5032004;28;20591;-76
2022/02/05 08:40:42;;;;;;;7.87;4.00;;;;;;;3.52;83.82;101072.13;5031326;28;20198;-77
2022/02/05 08:43:10;;;;;;;7.33;3.73;;;;;;;3.50;83.70;101072.09;5031356;28;20254;-78
2022/02/05 08:45:37;;;;;;;9.20;4.10;;;;;;;3.50;84.00;101069.50;5031544;28;20229;-77
2022/02/05 08:48:04;;;;;;;7.53;4.33;;;;;;;3.56;84.06;101063.63;5031217;28;20815;-78
2022/02/05 08:50:30;;;;;;;6.60;3.50;;;;;;;3.53;83.76;101077.34;5031333;28;20256;-78
2022/02/05 08:52:57;;;;;;;7.43;3.60;;;;;;;3.59;83.97;101074.00;5031316;28;20221;-79
2022/02/05 08:55:23;;;;;;;5.70;3.30;;;;;;;3.55;83.86;101067.91;5031531;28;20271;-78
2022/02/05 08:57:51;;;;;;;8.07;3.53;;;;;;;3.59;83.81;101079.16;5032118;28;20201;-77
2022/02/05 09:00:24;;;;;;;11.27;4.10;;;;;;;3.70;83.58;101077.66;5030915;28;20202;-78
2022/02/05 09:02:56;;;;;;;12.63;4.17;;;;;;;3.68;82.99;101096.53;5031081;28;20237;-77
2022/02/05 09:05:35;;;;;;;11.40;5.23;;;;;;;3.61;83.55;101095.56;5030027;28;20244;-77
2022/02/05 09:08:08;;;;;;;9.77;3.63;;;;;;;3.72;83.49;101106.09;5030185;28;20230;-78
2022/02/05 09:10:48;;;;;;;9.33;3.93;;;;;;;3.84;83.26;101113.22;5028482;28;20194;-77
2022/02/05 09:13:36;;;;;;;8.00;3.70;;;;;;;3.82;82.59;101126.06;5028943;28;20842;-77
2022/02/05 09:16:02;;;;;;;6.33;3.77;;;;;;;3.77;82.36;101130.31;5029507;28;20303;-77
2022/02/05 09:18:29;;;;;;;9.50;4.27;;;;;;;3.86;82.64;101137.34;5030782;28;20198;-77
2022/02/05 09:20:56;;;;;;;7.37;3.70;;;;;;;3.97;82.85;101120.34;5030590;28;20570;-78
2022/02/05 09:23:23;;;;;;;8.77;4.03;;;;;;;4.01;82.80;101126.47;5030840;28;20230;-78
2022/02/05 09:25:49;;;;;;;8.37;4.20;;;;;;;4.06;82.50;101127.41;5031140;28;20198;-77
2022/02/05 09:28:16;;;;;;;6.03;3.47;;;;;;;3.98;81.93;101135.00;5031010;28;20206;-78
2022/02/05 09:30:48;;;;;;;6.07;3.87;;;;;;;4.02;82.46;101154.00;5030894;28;20272;-79
2022/02/05 09:33:15;;;;;;;8.03;3.47;;;;;;;4.01;80.65;101172.94;5027260;28;20325;-78
2022/02/05 09:35:42;;;;;;;11.53;3.87;;;;;;;4.00;80.39;101173.78;5031348;28;20615;-78
2022/02/05 09:38:08;;;;;;;5.90;4.03;;;;;;;4.06;81.92;101156.69;5031052;28;20198;-78
2022/02/05 09:40:35;;;;;;;9.53;3.70;;;;;;;4.07;82.11;101166.19;5031672;28;20244;-79
2022/02/05 09:43:01;;;;;;;8.37;3.40;;;;;;;4.00;81.02;101176.34;5031720;28;20222;-79
2022/02/05 09:45:28;;;;;;;7.43;4.03;;;;;;;4.00;81.15;101184.97;5031716;28;20288;-79
2022/02/05 09:47:55;;;;;;;4.70;3.60;;;;;;;4.03;81.79;101173.84;5030814;28;20734;-79
2022/02/05 09:50:23;;;;;;;9.20;4.50;;;;;;;4.11;81.20;101174.88;5030707;28;20260;-76
2022/02/05 09:52:52;;;;;;;7.93;3.57;;;;;;;4.07;81.39;101192.00;5030871;28;20222;-80
2022/02/05 09:55:18;;;;;;;8.17;3.83;;;;;;;4.01;82.19;101178.97;5031019;28;20200;-79
2022/02/05 09:57:45;;;;;;;12.17;4.73;;;;;;;3.97;82.54;101153.94;5031042;28;20209;-78
2022/02/05 10:00:16;;;;;;;8.63;3.27;;;;;;;3.97;82.79;101149.63;5028270;28;20262;-77
2022/02/05 10:02:42;;;;;;;8.37;3.53;;;;;;;4.02;82.10;101157.47;5030549;28;20712;-78
2022/02/05 10:05:15;;;;;;;8.03;3.33;;;;;;;4.01;81.32;101181.56;5030513;28;20314;-79
2022/02/05 10:07:55;;;;;;;6.33;3.30;;;;;;;4.03;80.93;101200.56;5031034;28;20203;-77
2022/02/05 10:10:21;;;;;;;5.40;3.90;;;;;;;4.15;81.92;101199.91;5032859;28;20206;-76
2022/02/05 10:13:06;;;;;;;5.03;3.20;;;;;;;4.16;81.62;101188.72;5034183;28;20250;-77
2022/02/05 10:15:33;;;;;;;7.00;3.20;;;;;;;4.06;80.52;101221.25;5032108;28;20253;-77
2022/02/05 10:18:01;;;;;;;5.50;3.10;;;;;;;4.10;79.83;101222.19;5034313;28;20648;-78
2022/02/05 10:20:27;;;;;;;5.47;3.53;;;;;;;4.17;79.05;101257.66;5033657;28;20306;-77
2022/02/05 10:22:57;;;;;;;8.63;3.93;;;;;;;4.21;79.13;101250.84;5034309;28;20222;-79
2022/02/05 10:25:29;;;;;;;10.60;3.80;;;;;;;4.32;78.98;101255.41;5034023;28;20226;-78
2022/02/05 10:27:56;;;;;;;5.70;3.77;;;;;;;4.39;78.75;101261.53;5032073;28;20260;-78
2022/02/05 10:30:26;;;;;;;6.77;3.97;;;;;;;4.41;78.72;101271.94;5033442;28;20643;-78
2022/02/05 10:33:00;;;;;;;10.23;3.47;;;;;;;4.36;78.53;101275.28;5031019;28;20235;-77
2022/02/05 10:35:32;;;;;;;6.77;3.50;;;;;;;4.37;78.28;101276.16;5033327;28;20195;-77
2022/02/05 10:38:14;;;;;;;7.57;3.50;;;;;;;4.26;77.62;101285.41;5032170;28;20281;-78
2022/02/05 10:40:45;;;;;;;7.40;3.47;;;;;;;4.43;79.13;101270.25;5033258;28;20268;-77
2022/02/05 10:43:12;;;;;;;6.97;3.07;;;;;;;4.42;76.40;101312.44;5033813;28;20300;-77
2022/02/05 10:45:44;;;;;;;4.50;3.37;;;;;;;4.41;77.48;101311.56;5033919;28;20285;-77
2022/02/05 10:48:13;;;;;;;7.80;3.30;;;;;;;4.46;77.07;101315.13;5033705;28;20204;-77
2022/02/05 10:50:39;;;;;;;5.97;2.90;;;;;;;4.51;78.07;101300.56;5033589;28;20202;-75
2022/02/05 10:53:16;;;;;;;10.33;3.17;;;;;;;4.48;76.31;101307.38;5033491;28;20216;-78
2022/02/05 10:55:53;;;;;;;6.70;3.90;;;;;;;4.51;76.82;101316.06;5032085;28;20615;-79
2022/02/05 10:58:30;;;;;;;6.97;2.77;;;;;;;4.48;76.09;101326.38;5032917;28;20226;-77
2022/02/05 11:06:42;;;;;;;9.97;3.77;;;;;;;4.78;75.94;101326.09;5013794;28;20194;-78
2022/02/05 11:09:10;;;;;;;9.73;3.60;;;;;;;4.80;74.77;101352.00;5014445;28;20207;-77
2022/02/05 11:11:52;;;;;;;5.83;3.20;;;;;;;4.92;76.13;101326.34;5013886;28;20207;-77
2022/02/05 11:19:48;;;;;;;6.23;3.37;;;;;;;5.13;75.10;101348.28;5029245;28;20210;-77
2022/02/05 11:22:15;;;;;;;7.10;2.63;;;;;;;5.04;74.17;101392.97;5032975;28;20233;-77
2022/02/05 11:24:44;;;;;;;4.33;2.93;;;;;;;5.08;74.32;101387.00;5032857;28;20739;-76
2022/02/05 11:27:12;;;;;;;8.37;3.90;;;;;;;5.05;73.46;101407.66;5032939;28;20196;-77
2022/02/05 11:29:38;;;;;;;9.13;3.20;;;;;;;5.22;74.74;101386.41;5032574;28;20195;-77
2022/02/05 11:32:22;;;;;;;7.17;3.60;;;;;;;5.10;72.74;101406.03;5031788;28;20232;-79
2022/02/05 11:35:04;;;;;;;10.10;3.50;;;;;;;5.20;73.65;101413.97;5027997;28;20673;-77
2022/02/05 11:37:30;;;;;;;5.20;2.67;;;;;;;5.08;73.23;101437.91;5031066;28;20261;-78
2022/02/05 11:39:58;;;;;;;7.53;3.53;;;;;;;5.12;72.91;101422.47;5032193;28;20226;-76
2022/02/05 11:42:30;;;;;;;7.90;3.07;;;;;;;4.99;72.07;101448.94;5030324;28;20293;-76
2022/02/05 11:44:58;;;;;;;7.00;2.73;;;;;;;4.97;72.69;101441.16;5033323;28;20268;-77
2022/02/05 11:47:27;;;;;;;9.23;3.10;;;;;;;4.86;71.67;101463.34;4336352;28;10000789;-76
2022/02/05 11:50:16;;;;;;;6.87;2.47;;;;;;;4.83;70.87;101478.78;5029555;28;20207;-76
2022/02/05 11:52:57;;;;;;;6.23;3.10;;;;;;;4.80;71.21;101514.03;5029993;28;20284;-77
2022/02/05 11:55:36;;;;;;;5.33;2.40;;;;;;;4.95;71.35;101478.16;5029938;28;20267;-76
2022/02/05 11:58:05;;;;;;;7.47;2.93;;;;;;;5.17;72.09;101464.84;5029874;28;20234;-78
2022/02/05 12:00:33;;;;;;;5.90;2.37;;;;;;;5.15;69.72;101520.88;5029429;28;20203;-77
2022/02/05 12:03:03;;;;;;;4.87;2.33;;;;;;;5.06;69.44;101548.28;5029221;28;20226;-76
2022/02/05 12:05:33;;;;;;;3.90;3.10;;;;;;;5.00;70.34;101524.84;5029984;28;20229;-76
2022/02/05 12:08:01;;;;;;;9.10;4.10;;;;;;;4.95;70.44;101516.97;5029719;28;20291;-74
2022/02/05 12:10:38;;;;;;;10.30;4.63;;;;;;;4.96;72.37;101478.22;5029800;28;20210;-77
2022/02/05 12:13:14;;;;;;;7.03;2.60;;;;;;;5.02;70.46;101507.66;5029705;28;20225;-77
2022/02/05 12:15:42;;;;;;;4.67;2.90;;;;;;;5.10;71.29;101496.59;5029722;28;20261;-77
2022/02/05 12:18:19;;;;;;;6.67;3.10;;;;;;;5.20;69.96;101505.44;5029603;28;20213;-75
2022/02/05 12:21:11;;;;;;;7.57;2.90;;;;;;;5.29;69.34;101531.50;5029345;28;20214;-74
2022/02/05 12:26:46;;;;;;;3.87;2.67;;;;;;;5.13;69.53;101526.84;5015836;28;20620;-75
2022/02/05 12:29:25;;;;;;;11.40;4.77;;;;;;;5.16;69.06;101538.13;5029159;28;20239;-76
2022/02/05 12:31:53;;;;;;;8.83;4.00;;;;;;;5.09;69.00;101544.00;5029021;28;20217;-76
2022/02/05 12:34:19;;;;;;;6.17;3.70;;;;;;;5.12;68.53;101545.81;5029025;28;20203;-74
2022/02/05 12:36:49;;;;;;;9.17;2.83;;;;;;;5.20;69.33;101531.31;5029561;28;20233;-77
2022/02/05 12:39:18;;;;;;;6.87;3.57;;;;;;;5.09;68.64;101550.91;5029317;28;20216;-76
2022/02/05 12:41:51;;;;;;;9.30;4.60;;;;;;;5.12;69.36;101544.09;5029108;28;20215;-78
2022/02/05 12:44:20;;;;;;;7.93;3.20;;;;;;;5.15;69.49;101539.00;5028847;28;20235;-76
2022/02/05 12:46:52;;;;;;;6.90;3.40;;;;;;;5.20;70.48;101491.63;5020478;28;20223;-77
2022/02/05 12:49:23;;;;;;;3.50;2.80;;;;;;;5.27;69.51;101493.47;5009004;28;20312;-75
2022/02/05 12:51:51;;;;;;;7.00;3.73;;;;;;;5.12;68.96;101523.38;5009219;28;20204;-77
2022/02/05 12:54:20;;;;;;;5.03;4.07;;;;;;;5.20;69.49;101515.78;5009139;28;20674;-77
2022/02/05 12:56:49;;;;;;;4.90;3.07;;;;;;;5.45;68.80;101526.63;5009207;28;20267;-76
2022/02/05 12:59:24;;;;;;;8.53;2.90;;;;;;;6.01;67.12;101528.56;5009546;28;20217;-77
2022/02/05 13:01:52;;;;;;;4.37;3.70;;;;;;;6.49;66.05;101592.47;5010572;28;20211;-77
2022/02/05 13:04:22;;;;;;;5.07;2.63;;;;;;;6.70;64.85;101629.13;5030617;28;20213;-77
2022/02/05 13:07:00;;;;;;;4.93;3.13;;;;;;;6.71;66.13;101620.47;5030932;28;20243;-76
2022/02/05 13:09:28;;;;;;;3.77;2.80;;;;;;;6.58;65.75;101631.53;5029434;28;20318;-75
2022/02/05 13:11:59;;;;;;;4.70;2.87;;;;;;;6.20;65.09;101652.44;5028920;28;20255;-77
2022/02/05 13:14:36;;;;;;;5.70;3.03;;;;;;;5.97;66.52;101618.34;5029179;28;20216;-78